Time;durP1;ratioP1;P1;durP2;ratioP2;P2;SDS_P1;SDS_P2;PMS_P1;PMS_P2;Temp;Humidity;BMP_temperature;BMP_pressure;BME280_temperature;BME280_humidity;BME280_pressure;Samples;Min_cycle;Max_cycle;Signal;HPM_P1;HPM_P2
2023/03/21 00:01:11;;;;;;;8.80;1.93;;;20.70;99.90;;;;;;5063805;28;20181;-73
2023/03/21 00:03:41;;;;;;;10.03;2.23;;;20.70;99.90;;;;;;5073521;28;20283;-72
2023/03/21 00:06:12;;;;;;;12.67;1.73;;;20.80;99.90;;;;;;5068202;28;20226;-72
2023/03/21 00:08:41;;;;;;;16.73;2.60;;;21.00;99.90;;;;;;5065871;28;20188;-72
2023/03/21 00:11:11;;;;;;;14.27;2.43;;;21.20;99.90;;;;;;5066099;28;20192;-72
2023/03/21 00:13:42;;;;;;;8.63;2.13;;;21.30;99.90;;;;;;5074440;28;20607;-73
2023/03/21 00:16:15;;;;;;;12.97;2.13;;;21.40;99.90;;;;;;5075573;28;20271;-72
2023/03/21 00:18:45;;;;;;;13.60;2.30;;;21.40;99.90;;;;;;5074133;28;20547;-73
2023/03/21 00:21:21;;;;;;;11.70;2.20;;;21.50;99.90;;;;;;5052840;28;20610;-72
2023/03/21 00:23:49;;;;;;;13.50;2.30;;;21.40;99.90;;;;;;5055773;28;20198;-72
2023/03/21 00:26:17;;;;;;;7.90;2.23;;;21.40;99.90;;;;;;5062333;28;20226;-72
2023/03/21 00:28:45;;;;;;;7.57;1.80;;;21.20;99.90;;;;;;5084799;28;20672;-72
2023/03/21 00:31:12;;;;;;;16.83;2.07;;;21.10;99.90;;;;;;5054166;28;20548;-74
2023/03/21 00:33:40;;;;;;;8.37;2.07;;;21.00;99.90;;;;;;5053935;28;20189;-73
2023/03/21 00:36:10;;;;;;;9.90;1.87;;;21.10;99.90;;;;;;5034015;28;20189;-76
2023/03/21 00:38:38;;;;;;;12.70;1.90;;;21.20;99.90;;;;;;5034115;28;20188;-74
2023/03/21 00:41:08;;;;;;;6.33;1.43;;;21.40;99.90;;;;;;5034153;28;20177;-73
2023/03/21 00:43:36;;;;;;;10.13;1.87;;;21.60;99.90;;;;;;5033996;28;20268;-73
2023/03/21 00:46:04;;;;;;;12.33;2.07;;;21.80;99.90;;;;;;5035308;28;20252;-74
2023/03/21 00:48:32;;;;;;;13.53;2.67;;;22.00;99.90;;;;;;5053685;28;20173;-73
2023/03/21 00:51:00;;;;;;;10.73;1.93;;;22.00;99.90;;;;;;5053759;28;20188;-75
2023/03/21 00:53:28;;;;;;;16.77;1.90;;;22.00;99.90;;;;;;5067626;28;20236;-74
2023/03/21 00:55:56;;;;;;;8.53;1.53;;;22.10;99.90;;;;;;5070092;28;20239;-74
2023/03/21 00:58:25;;;;;;;6.33;1.60;;;22.00;99.90;;;;;;5072307;28;20690;-74
2023/03/21 01:00:52;;;;;;;9.00;1.57;;;22.00;99.90;;;;;;5069669;28;20186;-74
2023/03/21 01:03:20;;;;;;;6.53;1.80;;;22.10;99.90;;;;;;5046625;28;20315;-73
2023/03/21 01:06:04;;;;;;;9.43;1.80;;;22.20;99.90;;;;;;5065496;28;20218;-71
2023/03/21 01:08:37;;;;;;;8.80;1.80;;;22.30;99.90;;;;;;5050966;28;20324;-72
2023/03/21 01:11:09;;;;;;;10.07;1.83;;;22.50;99.90;;;;;;5072725;28;20664;-72
2023/03/21 01:13:37;;;;;;;8.07;1.87;;;22.50;99.90;;;;;;5072126;28;20234;-72
2023/03/21 01:16:07;;;;;;;9.87;2.00;;;22.50;99.90;;;;;;5041299;28;20192;-72
2023/03/21 01:18:37;;;;;;;11.77;1.70;;;22.60;99.90;;;;;;5068333;28;20191;-71
2023/03/21 01:21:09;;;;;;;8.13;1.97;;;22.70;99.90;;;;;;5070113;28;20192;-72
2023/03/21 01:23:38;;;;;;;9.23;2.53;;;22.80;99.90;;;;;;5068983;28;20306;-72
2023/03/21 01:26:06;;;;;;;10.17;2.00;;;22.80;99.90;;;;;;5071990;28;20219;-72
2023/03/21 01:28:35;;;;;;;4.77;1.43;;;22.80;99.90;;;;;;5071280;28;20180;-71
2023/03/21 01:31:04;;;;;;;12.93;3.00;;;22.90;99.90;;;;;;5054135;28;20192;-71
2023/03/21 01:33:33;;;;;;;16.57;2.10;;;22.90;99.90;;;;;;5033140;28;20169;-73
2023/03/21 01:36:01;;;;;;;6.37;1.40;;;22.90;99.90;;;;;;5038920;28;20195;-72
2023/03/21 01:38:29;;;;;;;9.53;2.57;;;23.00;99.90;;;;;;5052813;28;20180;-72
2023/03/21 01:40:59;;;;;;;10.77;2.07;;;23.40;99.90;;;;;;5052726;28;20561;-72
2023/03/21 01:43:29;;;;;;;10.50;1.97;;;23.60;99.90;;;;;;5052810;28;20176;-73
2023/03/21 01:46:36;;;;;;;6.10;1.70;;;23.90;99.90;;;;;;5052575;28;20713;-72
2023/03/21 01:49:15;;;;;;;11.50;1.77;;;24.20;99.90;;;;;;5052544;28;20272;-71
2023/03/21 01:51:50;;;;;;;11.80;1.70;;;24.50;99.90;;;;;;5064674;28;20641;-72
2023/03/21 01:54:28;;;;;;;11.20;2.00;;;24.30;99.90;;;;;;5071589;28;20182;-72
2023/03/21 01:57:00;;;;;;;6.80;1.53;;;24.10;99.90;;;;;;5068617;28;20176;-72
2023/03/21 01:59:50;;;;;;;10.80;2.20;;;23.90;99.90;;;;;;5071873;28;20208;-72
2023/03/21 02:02:31;;;;;;;10.63;2.13;;;23.70;99.90;;;;;;5070541;28;20176;-72
2023/03/21 02:05:02;;;;;;;7.63;1.93;;;23.90;99.90;;;;;;5054493;28;20192;-73
2023/03/21 02:07:34;;;;;;;8.57;1.90;;;24.10;99.90;;;;;;5067539;28;20267;-71
2023/03/21 02:10:06;;;;;;;11.23;2.27;;;24.20;99.90;;;;;;5060805;28;20613;-71
2023/03/21 02:12:34;;;;;;;13.20;2.40;;;24.50;99.90;;;;;;5055501;28;20673;-72
2023/03/21 02:15:02;;;;;;;10.10;1.93;;;24.70;99.90;;;;;;5051496;28;20224;-72
2023/03/21 02:17:52;;;;;;;9.17;1.40;;;24.90;99.90;;;;;;5051442;28;20267;-72
2023/03/21 02:20:41;;;;;;;12.23;2.70;;;25.10;99.90;;;;;;5044092;28;20196;-71
2023/03/21 02:23:44;;;;;;;9.93;2.13;;;25.10;99.90;;;;;;5069152;28;20180;-72
2023/03/21 02:26:28;;;;;;;9.93;2.07;;;25.00;99.90;;;;;;5041027;28;20211;-71
2023/03/21 02:29:00;;;;;;;9.53;1.60;;;25.20;99.90;;;;;;5059293;28;20247;-72
2023/03/21 02:31:54;;;;;;;10.03;1.40;;;25.30;99.90;;;;;;5055714;28;20185;-71
2023/03/21 02:34:53;;;;;;;13.93;1.50;;;25.30;99.90;;;;;;5031066;28;20200;-72
2023/03/21 02:37:23;;;;;;;9.60;1.87;;;25.30;99.90;;;;;;5036247;28;20184;-71
2023/03/21 02:40:32;;;;;;;8.30;1.60;;;25.70;99.90;;;;;;5051826;28;20183;-73
2023/03/21 02:43:12;;;;;;;10.63;1.83;;;26.70;99.90;;;;;;5051207;28;20201;-72
2023/03/21 02:45:49;;;;;;;14.23;2.67;;;26.90;99.90;;;;;;5052076;28;20234;-72
2023/03/21 02:48:30;;;;;;;8.17;1.83;;;26.30;99.90;;;;;;5036373;28;20183;-71
2023/03/21 02:51:01;;;;;;;10.20;2.07;;;26.00;99.90;;;;;;5040729;28;20188;-72
2023/03/21 02:53:34;;;;;;;10.93;2.20;;;25.60;99.90;;;;;;5051771;28;20181;-72
2023/03/21 02:56:03;;;;;;;8.77;2.07;;;25.40;99.90;;;;;;5050514;28;20243;-73
2023/03/21 02:58:32;;;;;;;7.80;2.37;;;25.30;99.90;;;;;;5039120;28;20181;-72
2023/03/21 03:01:00;;;;;;;7.47;1.40;;;25.20;99.90;;;;;;5049561;28;20180;-71
2023/03/21 03:03:28;;;;;;;13.07;2.57;;;25.50;99.90;;;;;;5051740;28;20173;-73
2023/03/21 03:05:58;;;;;;;10.40;1.93;;;25.40;99.90;;;;;;5063433;28;20212;-71
2023/03/21 03:08:32;;;;;;;12.23;2.10;;;25.30;99.90;;;;;;5071564;28;20172;-72
2023/03/21 03:11:17;;;;;;;9.60;1.50;;;25.50;99.90;;;;;;5070984;28;20616;-72
2023/03/21 03:14:06;;;;;;;8.80;2.27;;;25.60;99.90;;;;;;5069678;28;20239;-71
2023/03/21 03:16:39;;;;;;;8.77;2.13;;;25.30;99.90;;;;;;5069718;28;20620;-72
2023/03/21 03:19:16;;;;;;;8.80;2.10;;;25.20;99.90;;;;;;5070422;28;20187;-71
2023/03/21 03:22:09;;;;;;;11.40;2.10;;;25.00;99.90;;;;;;5031650;28;20264;-71
2023/03/21 03:25:05;;;;;;;10.37;2.50;;;25.10;99.90;;;;;;5036629;28;20253;-71
2023/03/21 03:27:38;;;;;;;14.83;1.93;;;24.80;99.90;;;;;;5068646;28;20253;-74
2023/03/21 03:30:09;;;;;;;11.33;2.30;;;24.90;99.90;;;;;;5061743;28;20188;-75
2023/03/21 03:32:44;;;;;;;6.53;1.63;;;24.90;99.90;;;;;;5051545;28;20220;-72
2023/03/21 03:35:16;;;;;;;10.50;2.00;;;25.00;99.90;;;;;;5056703;28;20295;-73
2023/03/21 03:37:48;;;;;;;10.43;2.10;;;24.80;99.90;;;;;;5071406;28;20180;-74
2023/03/21 03:40:25;;;;;;;11.77;2.30;;;24.60;99.90;;;;;;5067958;28;20184;-71
2023/03/21 03:42:58;;;;;;;6.80;1.97;;;24.60;99.90;;;;;;5064807;28;20198;-71
2023/03/21 03:45:36;;;;;;;13.07;2.33;;;24.50;99.90;;;;;;5071770;28;20212;-72
2023/03/21 03:48:16;;;;;;;10.23;1.80;;;24.40;99.90;;;;;;5074997;28;20221;-72
2023/03/21 03:51:02;;;;;;;11.57;2.43;;;24.10;99.90;;;;;;5061194;28;20181;-72
2023/03/21 03:54:03;;;;;;;9.67;2.00;;;24.00;99.90;;;;;;5035231;28;20213;-73
2023/03/21 03:56:31;;;;;;;10.13;2.10;;;24.00;99.90;;;;;;5035008;28;20173;-72
2023/03/21 03:59:01;;;;;;;12.37;1.97;;;23.70;99.90;;;;;;5035208;28;20503;-72
2023/03/21 04:01:28;;;;;;;13.87;1.97;;;23.70;99.90;;;;;;5034724;28;20189;-73
2023/03/21 04:03:56;;;;;;;8.93;2.00;;;23.70;99.90;;;;;;5034818;28;20544;-71
2023/03/21 04:06:27;;;;;;;10.70;1.90;;;23.60;99.90;;;;;;5034520;28;20198;-70
2023/03/21 04:08:56;;;;;;;13.13;2.30;;;23.50;99.90;;;;;;5056689;28;20274;-71
2023/03/21 04:11:24;;;;;;;8.53;2.07;;;23.30;99.90;;;;;;5073401;28;20326;-73
2023/03/21 04:13:52;;;;;;;7.97;2.03;;;23.30;99.90;;;;;;5074168;28;20263;-73
2023/03/21 04:16:22;;;;;;;7.37;1.70;;;23.30;99.90;;;;;;5064027;28;20188;-73
2023/03/21 04:18:51;;;;;;;6.50;1.80;;;23.30;99.90;;;;;;5054457;28;20176;-72
2023/03/21 04:21:20;;;;;;;8.97;2.03;;;23.40;99.90;;;;;;5053742;28;20191;-72
2023/03/21 04:23:48;;;;;;;11.63;2.60;;;23.40;99.90;;;;;;5074111;28;20705;-74
2023/03/21 04:26:16;;;;;;;10.37;1.87;;;23.40;99.90;;;;;;5074138;28;20219;-73
2023/03/21 04:28:43;;;;;;;10.37;2.37;;;23.30;99.90;;;;;;5072189;28;20190;-73
2023/03/21 04:31:12;;;;;;;7.83;2.03;;;23.30;99.90;;;;;;5055715;28;20250;-73
2023/03/21 04:33:40;;;;;;;9.47;2.00;;;23.30;99.90;;;;;;5073904;28;20176;-73
2023/03/21 04:36:17;;;;;;;12.50;1.80;;;23.20;99.90;;;;;;5072967;28;20192;-73
2023/03/21 04:38:47;;;;;;;16.17;2.10;;;23.10;99.90;;;;;;5062234;28;20194;-73
2023/03/21 04:41:15;;;;;;;9.73;1.90;;;23.10;99.90;;;;;;5058572;28;20228;-73
2023/03/21 04:43:43;;;;;;;11.23;2.00;;;23.00;99.90;;;;;;5073917;28;20187;-73
2023/03/21 04:46:10;;;;;;;12.37;2.20;;;23.00;99.90;;;;;;5071385;28;20219;-72
2023/03/21 04:48:38;;;;;;;13.30;1.90;;;23.00;99.90;;;;;;5069036;28;20184;-74
2023/03/21 04:51:05;;;;;;;11.07;2.17;;;23.00;99.90;;;;;;5040515;28;20197;-74
2023/03/21 04:53:33;;;;;;;7.27;1.50;;;22.90;99.90;;;;;;5037420;28;20582;-72
2023/03/21 04:56:00;;;;;;;9.47;2.10;;;22.90;99.90;;;;;;5053607;28;20187;-73
2023/03/21 04:58:29;;;;;;;10.57;2.77;;;22.70;99.90;;;;;;5052238;28;20227;-72
2023/03/21 05:00:56;;;;;;;8.73;2.57;;;22.60;99.90;;;;;;5073664;28;20190;-73
2023/03/21 05:03:24;;;;;;;11.03;2.63;;;22.60;99.90;;;;;;5072558;28;20179;-73
2023/03/21 05:05:52;;;;;;;8.10;2.50;;;22.60;99.90;;;;;;5073470;28;20334;-73
2023/03/21 05:08:20;;;;;;;12.93;2.33;;;22.50;99.90;;;;;;5073265;28;20187;-73
2023/03/21 05:10:47;;;;;;;13.07;2.07;;;22.50;99.90;;;;;;5072063;28;20184;-72
2023/03/21 05:13:14;;;;;;;11.93;2.07;;;22.50;99.90;;;;;;5049934;28;20240;-74
2023/03/21 05:15:42;;;;;;;7.43;2.10;;;22.50;99.90;;;;;;5033275;28;20271;-72
2023/03/21 05:18:12;;;;;;;7.83;2.20;;;22.40;99.90;;;;;;5061128;28;20191;-71
2023/03/21 05:20:43;;;;;;;13.77;2.80;;;22.40;99.90;;;;;;5055621;28;20662;-73
2023/03/21 05:23:11;;;;;;;12.07;2.30;;;22.30;99.90;;;;;;5041592;28;20547;-72
2023/03/21 05:25:39;;;;;;;14.17;2.63;;;22.30;99.90;;;;;;5073001;28;20216;-72
2023/03/21 05:28:07;;;;;;;21.07;3.03;;;22.30;99.90;;;;;;5043817;28;20268;-72
2023/03/21 05:30:35;;;;;;;9.00;1.97;;;22.30;99.90;;;;;;5033957;28;20187;-72
2023/03/21 05:33:02;;;;;;;8.60;2.37;;;22.30;99.90;;;;;;5071721;28;20192;-73
2023/03/21 05:35:30;;;;;;;10.77;2.27;;;22.30;99.90;;;;;;5071887;28;20194;-73
2023/03/21 05:37:58;;;;;;;15.53;2.50;;;22.30;99.90;;;;;;5072835;28;20175;-74
2023/03/21 05:40:25;;;;;;;12.10;2.27;;;22.30;99.90;;;;;;5069291;28;20183;-73
2023/03/21 05:42:53;;;;;;;16.37;2.50;;;22.30;99.90;;;;;;5052769;28;20175;-74
2023/03/21 05:45:20;;;;;;;11.80;2.13;;;22.20;99.90;;;;;;5071374;28;20180;-73
2023/03/21 05:47:47;;;;;;;14.43;2.90;;;22.20;99.90;;;;;;5059618;28;20253;-73
2023/03/21 05:50:15;;;;;;;15.23;2.47;;;22.30;99.90;;;;;;5032758;28;20507;-72
2023/03/21 05:52:42;;;;;;;11.90;2.53;;;22.20;99.90;;;;;;5032486;28;20185;-71
2023/03/21 05:55:10;;;;;;;8.03;1.93;;;22.20;99.90;;;;;;5086121;28;20179;-71
2023/03/21 05:57:39;;;;;;;7.87;1.80;;;22.10;99.90;;;;;;5067743;28;20180;-71
2023/03/21 06:00:08;;;;;;;12.40;2.67;;;22.10;99.90;;;;;;5063967;28;20642;-72
2023/03/21 06:02:36;;;;;;;16.63;2.53;;;22.10;99.90;;;;;;5071037;28;20213;-71
2023/03/21 06:05:03;;;;;;;8.97;1.90;;;22.20;99.90;;;;;;5063079;28;20191;-71
2023/03/21 06:07:31;;;;;;;14.30;2.10;;;22.10;99.90;;;;;;5061498;28;20949;-72
2023/03/21 06:09:58;;;;;;;7.87;1.80;;;22.20;99.90;;;;;;5033716;28;20196;-72
2023/03/21 06:12:26;;;;;;;12.57;2.40;;;22.10;99.90;;;;;;5054017;28;20909;-72
2023/03/21 06:14:53;;;;;;;8.63;2.13;;;22.10;99.90;;;;;;5041936;28;20189;-71
2023/03/21 06:17:21;;;;;;;10.40;1.90;;;22.10;99.90;;;;;;5032279;28;20275;-71
2023/03/21 06:19:48;;;;;;;18.73;2.87;;;22.10;99.90;;;;;;5032747;28;20284;-72
2023/03/21 06:22:16;;;;;;;8.93;1.83;;;22.00;99.90;;;;;;5070332;28;20241;-72
2023/03/21 06:24:43;;;;;;;17.33;2.03;;;21.90;99.90;;;;;;5070567;28;20623;-71
2023/03/21 06:27:11;;;;;;;7.33;2.00;;;21.90;99.90;;;;;;5070044;28;20245;-71
2023/03/21 06:29:38;;;;;;;11.17;2.03;;;21.90;99.90;;;;;;5072041;28;20176;-72
2023/03/21 06:32:06;;;;;;;13.23;2.80;;;21.90;99.90;;;;;;5070945;28;20179;-72
2023/03/21 06:34:34;;;;;;;14.53;2.53;;;21.90;99.90;;;;;;5071732;28;20262;-71
2023/03/21 06:37:02;;;;;;;12.90;2.37;;;21.80;99.90;;;;;;5046702;28;20188;-71
2023/03/21 06:39:31;;;;;;;16.73;2.13;;;21.90;99.90;;;;;;5051302;28;20189;-71
2023/03/21 06:42:00;;;;;;;9.90;1.93;;;21.80;99.90;;;;;;5051158;28;20199;-72
2023/03/21 06:44:28;;;;;;;9.77;2.13;;;21.80;99.90;;;;;;5051369;28;20177;-72
2023/03/21 06:46:55;;;;;;;11.97;1.93;;;21.80;99.90;;;;;;5051064;28;20254;-72
2023/03/21 06:49:22;;;;;;;9.37;1.80;;;21.80;99.90;;;;;;5050416;28;20641;-71
2023/03/21 06:51:50;;;;;;;11.03;2.00;;;21.80;99.90;;;;;;5051491;28;20232;-71
2023/03/21 06:54:18;;;;;;;11.43;2.00;;;21.70;99.90;;;;;;5069714;28;20195;-74
2023/03/21 06:56:46;;;;;;;9.33;2.00;;;21.70;99.90;;;;;;5060002;28;20573;-72
2023/03/21 06:59:13;;;;;;;13.97;2.07;;;21.70;99.90;;;;;;5072123;28;20172;-72
2023/03/21 07:01:43;;;;;;;17.17;2.43;;;21.70;99.90;;;;;;5072066;28;20182;-73
2023/03/21 07:04:11;;;;;;;10.93;2.40;;;21.60;99.90;;;;;;5065834;28;20237;-71
2023/03/21 07:06:38;;;;;;;8.57;2.20;;;21.60;99.90;;;;;;5051846;28;20216;-72
2023/03/21 07:09:06;;;;;;;10.00;2.00;;;21.60;99.90;;;;;;5051744;28;20172;-72
2023/03/21 07:11:35;;;;;;;10.37;2.57;;;21.60;99.90;;;;;;5051977;28;20201;-73
2023/03/21 07:14:02;;;;;;;10.23;1.70;;;21.60;99.90;;;;;;5047520;28;20287;-73
2023/03/21 07:16:29;;;;;;;8.73;2.20;;;21.60;99.90;;;;;;5033733;28;20227;-73
2023/03/21 07:18:57;;;;;;;15.00;2.30;;;21.70;99.90;;;;;;5035998;28;20180;-72
2023/03/21 07:21:24;;;;;;;12.70;2.27;;;21.60;99.90;;;;;;5037093;28;20187;-73
2023/03/21 07:23:52;;;;;;;5.40;1.80;;;21.50;99.90;;;;;;5042355;28;20254;-73
2023/03/21 07:26:19;;;;;;;10.43;2.20;;;21.50;99.90;;;;;;5075999;28;20524;-73
2023/03/21 07:28:47;;;;;;;19.17;2.60;;;21.50;99.90;;;;;;5075772;28;20187;-73
2023/03/21 07:31:16;;;;;;;15.40;2.10;;;21.40;99.90;;;;;;5075749;28;20187;-74
2023/03/21 07:33:43;;;;;;;8.50;1.80;;;21.40;99.90;;;;;;5074059;28;20189;-74
2023/03/21 07:36:14;;;;;;;9.33;1.90;;;21.40;99.90;;;;;;5075631;28;20273;-73
2023/03/21 07:38:45;;;;;;;14.33;2.30;;;21.40;99.90;;;;;;5074691;28;20179;-73
2023/03/21 07:41:13;;;;;;;9.10;1.60;;;21.40;99.90;;;;;;5075436;28;20191;-73
2023/03/21 07:43:40;;;;;;;8.57;2.00;;;21.40;99.90;;;;;;5074271;28;20240;-73
2023/03/21 07:46:08;;;;;;;7.73;2.47;;;21.50;99.90;;;;;;5073267;28;20769;-73
2023/03/21 07:48:36;;;;;;;8.03;2.70;;;21.40;99.90;;;;;;5074875;28;20208;-73
2023/03/21 07:51:05;;;;;;;11.87;1.73;;;21.40;99.90;;;;;;5074817;28;20188;-73
2023/03/21 07:53:32;;;;;;;8.17;1.80;;;21.30;99.90;;;;;;5073663;28;20172;-73
2023/03/21 07:56:00;;;;;;;5.97;1.63;;;21.30;99.90;;;;;;5074790;28;20226;-73
2023/03/21 07:58:27;;;;;;;10.50;1.70;;;21.40;99.90;;;;;;5074749;28;20176;-73
2023/03/21 08:00:55;;;;;;;10.60;2.53;;;21.40;99.90;;;;;;5074664;28;20183;-73
2023/03/21 08:03:25;;;;;;;8.17;1.43;;;21.40;99.90;;;;;;5071521;28;20561;-73
2023/03/21 08:05:52;;;;;;;8.37;1.87;;;21.20;99.90;;;;;;5058732;28;20222;-72
2023/03/21 08:08:19;;;;;;;6.47;1.77;;;21.20;99.90;;;;;;5044872;28;20227;-72
2023/03/21 08:10:47;;;;;;;6.47;1.50;;;21.20;99.90;;;;;;5070774;28;20188;-72
2023/03/21 08:13:14;;;;;;;7.73;1.63;;;21.20;99.90;;;;;;5075544;28;20254;-71
2023/03/21 08:15:42;;;;;;;10.57;2.50;;;21.10;99.90;;;;;;5075707;28;20648;-72
2023/03/21 08:18:10;;;;;;;7.50;1.77;;;21.00;99.90;;;;;;5075514;28;20602;-72
2023/03/21 08:20:37;;;;;;;8.77;1.57;;;20.90;99.90;;;;;;5061197;28;20188;-71
2023/03/21 08:23:05;;;;;;;15.00;2.47;;;20.90;99.90;;;;;;5054539;28;20519;-72
2023/03/21 08:25:32;;;;;;;7.67;1.80;;;20.80;99.90;;;;;;5055256;28;20214;-72
2023/03/21 08:28:00;;;;;;;12.10;1.80;;;20.80;99.90;;;;;;5053966;28;20248;-72
2023/03/21 08:30:28;;;;;;;11.50;2.80;;;20.70;99.90;;;;;;5054659;28;20240;-72
2023/03/21 08:32:59;;;;;;;7.90;1.87;;;20.70;99.90;;;;;;5071045;28;20192;-73
2023/03/21 08:35:27;;;;;;;7.90;1.87;;;20.60;99.90;;;;;;5061726;28;20196;-72
2023/03/21 08:37:54;;;;;;;7.87;1.40;;;20.60;99.90;;;;;;5037300;28;20233;-72
2023/03/21 08:40:22;;;;;;;3.93;1.60;;;20.60;99.90;;;;;;5056996;28;20676;-71
2023/03/21 08:42:49;;;;;;;8.83;2.37;;;20.70;99.90;;;;;;5059101;28;20201;-72
2023/03/21 08:45:17;;;;;;;7.20;1.63;;;20.70;99.90;;;;;;5056662;28;20195;-72
2023/03/21 08:47:45;;;;;;;10.03;1.70;;;20.70;99.90;;;;;;5041648;28;20642;-72
2023/03/21 08:50:16;;;;;;;7.83;1.60;;;20.70;99.90;;;;;;5034456;28;20594;-72
2023/03/21 08:52:44;;;;;;;9.53;1.80;;;20.70;99.90;;;;;;5034500;28;20253;-71
2023/03/21 08:55:13;;;;;;;12.30;1.93;;;20.70;99.90;;;;;;5060536;28;20542;-72
2023/03/21 08:57:41;;;;;;;12.40;1.73;;;20.70;99.90;;;;;;5073358;28;20188;-73
2023/03/21 09:00:15;;;;;;;9.53;2.03;;;20.70;99.90;;;;;;5073231;28;20187;-72
2023/03/21 09:02:45;;;;;;;10.67;2.03;;;20.70;99.90;;;;;;5070960;28;20193;-72
2023/03/21 09:05:15;;;;;;;7.40;1.60;;;20.70;99.90;;;;;;5065770;28;20188;-72
2023/03/21 09:07:44;;;;;;;4.23;1.60;;;20.70;99.90;;;;;;5034198;28;20646;-72
2023/03/21 09:10:15;;;;;;;4.70;1.50;;;20.80;99.90;;;;;;5042424;28;20544;-72
2023/03/21 09:12:42;;;;;;;12.00;2.17;;;20.80;99.90;;;;;;5064645;28;20228;-71
2023/03/21 09:15:11;;;;;;;9.63;2.07;;;20.80;99.90;;;;;;5071401;28;20212;-72
2023/03/21 09:17:43;;;;;;;11.63;2.07;;;21.00;99.90;;;;;;5072811;28;20591;-72
2023/03/21 09:20:24;;;;;;;7.30;2.13;;;20.90;99.90;;;;;;5074049;28;20183;-72
2023/03/21 09:22:52;;;;;;;6.03;1.70;;;21.00;99.90;;;;;;5072665;28;20202;-72
2023/03/21 09:25:20;;;;;;;10.80;1.63;;;21.00;99.90;;;;;;5073754;28;20553;-71
2023/03/21 09:27:47;;;;;;;11.87;1.70;;;20.90;99.90;;;;;;5073721;28;20176;-72
2023/03/21 09:30:22;;;;;;;6.73;1.57;;;20.90;99.90;;;;;;5071762;28;20688;-72
2023/03/21 09:32:52;;;;;;;8.07;1.53;;;20.90;99.90;;;;;;5071112;28;20733;-72
2023/03/21 09:35:20;;;;;;;17.03;1.80;;;20.80;99.90;;;;;;5072620;28;20193;-72
2023/03/21 09:37:49;;;;;;;8.10;1.60;;;20.80;99.90;;;;;;5073279;28;20317;-72
2023/03/21 09:40:40;;;;;;;7.53;1.70;;;20.80;99.90;;;;;;5072182;28;20196;-72
2023/03/21 09:43:33;;;;;;;6.83;1.80;;;20.80;99.90;;;;;;5073712;28;20575;-72
2023/03/21 09:46:05;;;;;;;11.43;2.13;;;20.80;99.90;;;;;;5071182;28;20219;-71
2023/03/21 09:48:53;;;;;;;7.87;1.60;;;20.80;99.90;;;;;;5072488;28;20232;-72
2023/03/21 09:51:22;;;;;;;8.33;1.73;;;20.80;99.90;;;;;;5064842;28;20191;-71
2023/03/21 09:53:53;;;;;;;7.77;1.43;;;20.80;99.90;;;;;;5043765;28;20183;-72
2023/03/21 09:56:20;;;;;;;7.90;1.30;;;20.80;99.90;;;;;;5063597;28;20661;-73
2023/03/21 09:58:55;;;;;;;9.80;1.83;;;20.70;99.90;;;;;;5047439;28;20183;-72
2023/03/21 10:01:40;;;;;;;9.03;1.57;;;20.70;99.90;;;;;;5072194;28;20189;-72
2023/03/21 10:04:14;;;;;;;5.70;1.70;;;20.60;99.90;;;;;;5070802;28;20737;-72
2023/03/21 10:06:44;;;;;;;4.60;1.97;;;20.60;99.90;;;;;;5072657;28;20227;-72
2023/03/21 10:09:23;;;;;;;5.37;1.70;;;20.60;99.90;;;;;;5073185;28;20195;-71
2023/03/21 10:11:59;;;;;;;10.13;2.10;;;20.60;99.90;;;;;;5068260;28;20210;-72
2023/03/21 10:14:47;;;;;;;5.93;1.83;;;20.60;99.90;;;;;;5071507;28;20234;-72
2023/03/21 10:17:57;;;;;;;7.83;1.80;;;20.60;99.90;;;;;;5072911;28;20220;-72
2023/03/21 10:20:32;;;;;;;7.00;2.07;;;20.60;99.90;;;;;;5042277;28;20259;-72
2023/03/21 10:23:04;;;;;;;12.43;2.53;;;20.60;99.90;;;;;;5071851;28;20282;-72
2023/03/21 10:25:42;;;;;;;11.67;2.33;;;20.60;99.90;;;;;;5059195;28;20534;-72
2023/03/21 10:28:21;;;;;;;17.73;2.53;;;20.60;99.90;;;;;;5033078;28;20188;-72
2023/03/21 10:30:54;;;;;;;8.63;2.50;;;20.50;99.90;;;;;;5032809;28;20244;-72
2023/03/21 10:33:29;;;;;;;7.20;1.70;;;20.50;99.90;;;;;;5064365;28;20664;-72
2023/03/21 10:36:02;;;;;;;9.47;1.97;;;20.60;99.90;;;;;;5040199;28;20283;-72
2023/03/21 10:38:30;;;;;;;6.87;1.53;;;20.70;99.90;;;;;;5032651;28;20185;-72
2023/03/21 10:40:57;;;;;;;8.83;2.03;;;20.60;99.90;;;;;;5066104;28;20630;-71
2023/03/21 10:43:33;;;;;;;8.53;1.73;;;20.60;99.90;;;;;;5070237;28;20699;-72
2023/03/21 10:46:07;;;;;;;7.03;2.00;;;20.60;99.90;;;;;;5072937;28;20261;-72
2023/03/21 10:48:40;;;;;;;7.60;2.10;;;20.60;99.90;;;;;;5052116;28;20192;-71
2023/03/21 10:51:09;;;;;;;12.23;2.00;;;20.60;99.90;;;;;;5047076;28;20240;-72
2023/03/21 10:53:40;;;;;;;10.77;2.03;;;20.70;99.90;;;;;;5066882;28;20198;-72
2023/03/21 10:56:12;;;;;;;15.00;2.50;;;20.60;99.90;;;;;;5067151;28;20194;-72
2023/03/21 10:58:45;;;;;;;7.00;1.90;;;20.60;99.90;;;;;;5071216;28;20191;-72
2023/03/21 11:01:38;;;;;;;8.60;2.10;;;20.50;99.90;;;;;;5057975;28;20182;-73
2023/03/21 11:04:21;;;;;;;5.80;1.60;;;20.50;99.90;;;;;;5061425;28;20580;-72
2023/03/21 11:06:53;;;;;;;9.47;1.60;;;20.50;99.90;;;;;;5052317;28;20215;-72
2023/03/21 11:09:24;;;;;;;11.07;2.10;;;20.50;99.90;;;;;;5070201;28;20796;-72
2023/03/21 11:12:25;;;;;;;4.20;1.40;;;20.50;99.90;;;;;;5069928;28;20207;-72
2023/03/21 11:14:55;;;;;;;7.93;1.50;;;20.50;99.90;;;;;;5065591;28;20669;-72
2023/03/21 11:17:26;;;;;;;5.97;1.77;;;20.50;99.90;;;;;;5053967;28;20550;-71
2023/03/21 11:20:07;;;;;;;8.90;1.67;;;20.60;99.90;;;;;;5051663;28;20183;-70
2023/03/21 11:22:42;;;;;;;7.27;1.60;;;20.70;99.90;;;;;;5053696;28;20174;-72
2023/03/21 11:25:21;;;;;;;10.17;2.33;;;20.70;99.90;;;;;;5061886;28;20339;-71
2023/03/21 11:27:51;;;;;;;7.60;1.93;;;20.80;99.90;;;;;;5070290;28;20553;-71
2023/03/21 11:30:27;;;;;;;11.00;2.03;;;20.70;99.90;;;;;;5061849;28;20649;-72
2023/03/21 11:33:05;;;;;;;7.97;1.90;;;20.70;99.90;;;;;;5069553;28;20187;-72
2023/03/21 11:35:37;;;;;;;5.53;2.10;;;20.70;99.90;;;;;;5067488;28;20184;-71
2023/03/21 11:38:06;;;;;;;4.83;1.57;;;20.70;99.90;;;;;;5070956;28;20195;-72
2023/03/21 11:40:36;;;;;;;7.23;1.83;;;20.60;99.90;;;;;;5061957;28;20187;-72
2023/03/21 11:43:27;;;;;;;5.97;1.90;;;20.60;99.90;;;;;;5056077;28;20186;-72
2023/03/21 11:46:02;;;;;;;6.83;1.97;;;20.70;99.90;;;;;;5068908;28;20227;-71
2023/03/21 11:48:30;;;;;;;7.67;1.83;;;20.60;99.90;;;;;;5070321;28;20186;-72
2023/03/21 11:51:03;;;;;;;10.60;2.00;;;20.50;99.90;;;;;;5070712;28;20171;-71
2023/03/21 11:54:03;;;;;;;4.63;1.53;;;20.50;99.90;;;;;;5060041;28;20184;-71
2023/03/21 11:57:02;;;;;;;9.60;1.80;;;20.50;99.90;;;;;;5035722;28;20247;-71
2023/03/21 11:59:42;;;;;;;7.47;1.57;;;20.50;99.90;;;;;;5050247;28;20763;-71
2023/03/21 12:02:47;;;;;;;9.27;1.70;;;20.50;99.90;;;;;;5073353;28;20217;-70
2023/03/21 12:05:20;;;;;;;8.17;1.90;;;20.50;99.90;;;;;;5072147;28;20290;-72
2023/03/21 12:07:59;;;;;;;8.97;1.83;;;20.50;99.90;;;;;;5071992;28;20200;-72
2023/03/21 12:10:43;;;;;;;4.63;1.33;;;20.50;99.90;;;;;;5075811;28;20194;-73
2023/03/21 12:13:37;;;;;;;4.50;1.40;;;20.40;99.90;;;;;;5069579;28;20228;-72
2023/03/21 12:16:27;;;;;;;8.47;1.47;;;20.50;99.90;;;;;;5067318;28;20339;-72
2023/03/21 12:19:08;;;;;;;6.90;1.20;;;20.40;99.90;;;;;;5068682;28;20190;-72
2023/03/21 12:22:33;;;;;;;9.30;1.93;;;20.40;99.90;;;;;;5059978;28;20192;-72
2023/03/21 12:25:47;;;;;;;7.73;1.30;;;20.30;99.90;;;;;;5031287;28;20287;-72
2023/03/21 12:28:27;;;;;;;6.70;1.80;;;20.30;99.90;;;;;;5035239;28;20200;-73
2023/03/21 12:31:20;;;;;;;11.37;1.87;;;20.20;99.90;;;;;;5035275;28;20187;-72
2023/03/21 12:33:55;;;;;;;5.80;1.00;;;20.20;99.90;;;;;;5054454;28;20193;-73
2023/03/21 12:36:55;;;;;;;6.17;1.50;;;20.20;99.90;;;;;;5070740;28;20180;-72
2023/03/21 12:39:26;;;;;;;5.63;1.20;;;20.20;99.90;;;;;;5071316;28;20182;-73
2023/03/21 12:42:07;;;;;;;6.77;1.50;;;20.20;99.90;;;;;;5054905;28;20193;-73
2023/03/21 12:45:21;;;;;;;6.37;1.50;;;20.20;99.90;;;;;;5072320;28;20630;-72
2023/03/21 12:48:00;;;;;;;6.53;1.40;;;20.20;99.90;;;;;;5063852;28;20219;-72
2023/03/21 12:50:37;;;;;;;9.23;1.43;;;20.20;99.90;;;;;;5063824;28;20212;-72
2023/03/21 12:53:35;;;;;;;6.93;1.80;;;20.20;99.90;;;;;;5056038;28;20187;-73
2023/03/21 12:56:07;;;;;;;11.03;1.63;;;20.20;99.90;;;;;;5067231;28;20192;-73
2023/03/21 12:58:48;;;;;;;8.27;1.73;;;20.20;99.90;;;;;;5057640;28;20178;-71
2023/03/21 13:01:19;;;;;;;5.20;1.57;;;20.20;99.90;;;;;;5074220;28;20176;-72
2023/03/21 13:04:06;;;;;;;6.60;1.57;;;20.20;99.90;;;;;;5074461;28;20175;-73
2023/03/21 13:06:36;;;;;;;7.33;1.87;;;20.20;99.90;;;;;;5074585;28;20264;-72
2023/03/21 13:09:40;;;;;;;7.20;1.87;;;20.20;99.90;;;;;;5064883;28;20195;-72
2023/03/21 13:12:22;;;;;;;9.07;1.50;;;20.20;99.90;;;;;;5045603;28;20190;-72
2023/03/21 13:15:01;;;;;;;7.37;1.80;;;20.20;99.90;;;;;;5054444;28;20195;-73